sensor_id;sensor_type;location;lat;lon;timestamp;P1;durP1;ratioP1;P2;durP2;ratioP2
19919;SDS011;10122;50.074;19.920;2023-04-01T00:00:18;3.58;;;1.70;;
19919;SDS011;10122;50.074;19.920;2023-04-01T00:02:45;3.08;;;1.52;;
19919;SDS011;10122;50.074;19.920;2023-04-01T00:05:12;2.80;;;1.63;;
19919;SDS011;10122;50.074;19.920;2023-04-01T00:07:38;4.45;;;1.70;;
19919;SDS011;10122;50.074;19.920;2023-04-01T00:10:08;2.75;;;1.70;;
19919;SDS011;10122;50.074;19.920;2023-04-01T00:12:36;4.18;;;1.60;;
19919;SDS011;10122;50.074;19.920;2023-04-01T00:15:03;2.90;;;1.48;;
19919;SDS011;10122;50.074;19.920;2023-04-01T00:17:30;4.03;;;1.65;;
19919;SDS011;10122;50.074;19.920;2023-04-01T00:19:56;3.20;;;1.58;;
19919;SDS011;10122;50.074;19.920;2023-04-01T00:22:23;2.42;;;1.58;;
19919;SDS011;10122;50.074;19.920;2023-04-01T00:24:49;3.33;;;1.60;;
19919;SDS011;10122;50.074;19.920;2023-04-01T00:27:16;3.92;;;1.77;;
19919;SDS011;10122;50.074;19.920;2023-04-01T00:29:45;3.05;;;1.50;;
19919;SDS011;10122;50.074;19.920;2023-04-01T00:32:13;4.50;;;1.83;;
19919;SDS011;10122;50.074;19.920;2023-04-01T00:34:39;3.63;;;1.85;;
19919;SDS011;10122;50.074;19.920;2023-04-01T00:37:05;3.00;;;1.60;;
19919;SDS011;10122;50.074;19.920;2023-04-01T00:39:31;2.88;;;1.60;;
19919;SDS011;10122;50.074;19.920;2023-04-01T00:41:58;3.63;;;1.70;;
19919;SDS011;10122;50.074;19.920;2023-04-01T00:44:25;2.75;;;1.50;;
19919;SDS011;10122;50.074;19.920;2023-04-01T00:46:53;3.63;;;1.77;;
19919;SDS011;10122;50.074;19.920;2023-04-01T00:49:20;3.50;;;1.70;;
19919;SDS011;10122;50.074;19.920;2023-04-01T00:51:49;3.30;;;1.90;;
19919;SDS011;10122;50.074;19.920;2023-04-01T00:54:18;2.15;;;1.58;;
19919;SDS011;10122;50.074;19.920;2023-04-01T00:56:47;3.67;;;1.67;;
19919;SDS011;10122;50.074;19.920;2023-04-01T00:59:21;4.30;;;1.58;;
19919;SDS011;10122;50.074;19.920;2023-04-01T01:01:52;3.67;;;1.70;;
19919;SDS011;10122;50.074;19.920;2023-04-01T01:04:22;3.20;;;1.55;;
19919;SDS011;10122;50.074;19.920;2023-04-01T01:07:13;2.67;;;1.70;;
19919;SDS011;10122;50.074;19.920;2023-04-01T01:10:10;3.78;;;1.58;;
19919;SDS011;10122;50.074;19.920;2023-04-01T01:12:47;2.97;;;1.67;;
19919;SDS011;10122;50.074;19.920;2023-04-01T01:17:58;2.83;;;1.85;;
19919;SDS011;10122;50.074;19.920;2023-04-01T01:29:29;3.42;;;1.90;;
19919;SDS011;10122;50.074;19.920;2023-04-01T01:37:40;3.50;;;1.90;;
19919;SDS011;10122;50.074;19.920;2023-04-01T01:40:08;2.28;;;1.60;;
19919;SDS011;10122;50.074;19.920;2023-04-01T01:42:37;2.95;;;1.60;;
19919;SDS011;10122;50.074;19.920;2023-04-01T01:45:07;3.08;;;1.63;;
19919;SDS011;10122;50.074;19.920;2023-04-01T01:47:35;3.45;;;1.55;;
19919;SDS011;10122;50.074;19.920;2023-04-01T01:50:02;3.22;;;1.75;;
19919;SDS011;10122;50.074;19.920;2023-04-01T01:52:29;4.32;;;1.80;;
19919;SDS011;10122;50.074;19.920;2023-04-01T01:54:56;2.67;;;1.75;;
19919;SDS011;10122;50.074;19.920;2023-04-01T01:57:24;4.47;;;1.90;;
19919;SDS011;10122;50.074;19.920;2023-04-01T01:59:56;2.65;;;1.75;;
19919;SDS011;10122;50.074;19.920;2023-04-01T02:02:30;2.90;;;1.70;;
19919;SDS011;10122;50.074;19.920;2023-04-01T02:04:57;2.45;;;1.67;;
19919;SDS011;10122;50.074;19.920;2023-04-01T02:07:24;5.32;;;1.80;;
19919;SDS011;10122;50.074;19.920;2023-04-01T02:09:55;3.10;;;1.90;;
19919;SDS011;10122;50.074;19.920;2023-04-01T02:12:21;3.40;;;1.80;;
19919;SDS011;10122;50.074;19.920;2023-04-01T02:14:58;3.45;;;1.70;;
19919;SDS011;10122;50.074;19.920;2023-04-01T02:17:31;4.88;;;1.80;;
19919;SDS011;10122;50.074;19.920;2023-04-01T02:20:04;3.33;;;1.70;;
19919;SDS011;10122;50.074;19.920;2023-04-01T02:22:52;3.40;;;1.73;;
19919;SDS011;10122;50.074;19.920;2023-04-01T02:25:30;3.22;;;1.90;;
19919;SDS011;10122;50.074;19.920;2023-04-01T02:27:59;2.53;;;1.80;;
19919;SDS011;10122;50.074;19.920;2023-04-01T02:30:27;4.32;;;1.85;;
19919;SDS011;10122;50.074;19.920;2023-04-01T02:32:56;3.33;;;1.80;;
19919;SDS011;10122;50.074;19.920;2023-04-01T02:35:23;3.80;;;1.60;;
19919;SDS011;10122;50.074;19.920;2023-04-01T02:37:51;2.90;;;1.70;;
19919;SDS011;10122;50.074;19.920;2023-04-01T02:40:19;3.08;;;1.70;;
19919;SDS011;10122;50.074;19.920;2023-04-01T02:42:45;3.28;;;1.85;;
19919;SDS011;10122;50.074;19.920;2023-04-01T02:45:11;3.25;;;1.73;;
19919;SDS011;10122;50.074;19.920;2023-04-01T02:47:38;4.05;;;1.88;;
19919;SDS011;10122;50.074;19.920;2023-04-01T02:50:04;4.82;;;1.80;;
19919;SDS011;10122;50.074;19.920;2023-04-01T02:52:30;4.63;;;1.88;;
19919;SDS011;10122;50.074;19.920;2023-04-01T02:54:56;4.05;;;1.73;;
19919;SDS011;10122;50.074;19.920;2023-04-01T02:57:22;4.15;;;1.60;;
19919;SDS011;10122;50.074;19.920;2023-04-01T02:59:48;4.10;;;1.60;;
19919;SDS011;10122;50.074;19.920;2023-04-01T03:02:14;4.53;;;1.88;;
19919;SDS011;10122;50.074;19.920;2023-04-01T03:04:40;3.88;;;1.60;;
19919;SDS011;10122;50.074;19.920;2023-04-01T03:07:06;3.13;;;1.60;;
19919;SDS011;10122;50.074;19.920;2023-04-01T03:09:32;6.50;;;1.60;;
19919;SDS011;10122;50.074;19.920;2023-04-01T03:11:57;3.78;;;1.85;;
19919;SDS011;10122;50.074;19.920;2023-04-01T03:14:23;2.60;;;1.60;;
19919;SDS011;10122;50.074;19.920;2023-04-01T03:16:49;3.55;;;1.80;;
19919;SDS011;10122;50.074;19.920;2023-04-01T03:19:15;5.20;;;2.05;;
19919;SDS011;10122;50.074;19.920;2023-04-01T03:21:40;4.28;;;2.00;;
19919;SDS011;10122;50.074;19.920;2023-04-01T03:24:06;3.67;;;1.65;;
19919;SDS011;10122;50.074;19.920;2023-04-01T03:26:33;4.95;;;1.98;;
19919;SDS011;10122;50.074;19.920;2023-04-01T03:28:58;6.93;;;2.28;;
19919;SDS011;10122;50.074;19.920;2023-04-01T03:31:24;3.25;;;1.80;;
19919;SDS011;10122;50.074;19.920;2023-04-01T03:33:50;5.43;;;2.00;;
19919;SDS011;10122;50.074;19.920;2023-04-01T03:36:16;3.30;;;1.75;;
19919;SDS011;10122;50.074;19.920;2023-04-01T03:38:42;3.55;;;1.80;;
19919;SDS011;10122;50.074;19.920;2023-04-01T03:41:13;3.20;;;1.70;;
19919;SDS011;10122;50.074;19.920;2023-04-01T03:43:40;4.00;;;1.92;;
19919;SDS011;10122;50.074;19.920;2023-04-01T03:46:06;4.53;;;1.83;;
19919;SDS011;10122;50.074;19.920;2023-04-01T03:48:32;3.03;;;1.75;;
19919;SDS011;10122;50.074;19.920;2023-04-01T03:50:57;4.05;;;1.70;;
19919;SDS011;10122;50.074;19.920;2023-04-01T03:53:23;4.40;;;1.73;;
19919;SDS011;10122;50.074;19.920;2023-04-01T03:55:49;4.40;;;1.80;;
19919;SDS011;10122;50.074;19.920;2023-04-01T03:58:16;3.38;;;1.70;;
19919;SDS011;10122;50.074;19.920;2023-04-01T04:00:42;3.08;;;1.70;;
19919;SDS011;10122;50.074;19.920;2023-04-01T04:03:08;3.92;;;1.90;;
19919;SDS011;10122;50.074;19.920;2023-04-01T04:05:33;4.22;;;1.83;;
19919;SDS011;10122;50.074;19.920;2023-04-01T04:07:59;4.43;;;1.95;;
19919;SDS011;10122;50.074;19.920;2023-04-01T04:10:25;4.07;;;1.85;;
19919;SDS011;10122;50.074;19.920;2023-04-01T04:12:51;5.72;;;2.20;;
19919;SDS011;10122;50.074;19.920;2023-04-01T04:15:17;2.97;;;1.85;;
19919;SDS011;10122;50.074;19.920;2023-04-01T04:17:46;5.13;;;2.20;;
19919;SDS011;10122;50.074;19.920;2023-04-01T04:20:12;5.50;;;2.22;;
19919;SDS011;10122;50.074;19.920;2023-04-01T04:22:38;3.50;;;1.88;;
19919;SDS011;10122;50.074;19.920;2023-04-01T04:25:04;5.97;;;2.17;;
19919;SDS011;10122;50.074;19.920;2023-04-01T04:27:31;5.45;;;2.17;;
19919;SDS011;10122;50.074;19.920;2023-04-01T04:29:57;4.68;;;1.98;;
19919;SDS011;10122;50.074;19.920;2023-04-01T04:32:22;4.35;;;2.10;;
19919;SDS011;10122;50.074;19.920;2023-04-01T04:34:48;3.63;;;1.88;;
19919;SDS011;10122;50.074;19.920;2023-04-01T04:37:14;4.13;;;2.30;;
19919;SDS011;10122;50.074;19.920;2023-04-01T04:39:39;4.47;;;2.20;;
19919;SDS011;10122;50.074;19.920;2023-04-01T04:42:05;4.85;;;2.00;;
19919;SDS011;10122;50.074;19.920;2023-04-01T04:44:31;5.13;;;2.40;;
19919;SDS011;10122;50.074;19.920;2023-04-01T04:46:57;3.65;;;2.10;;
19919;SDS011;10122;50.074;19.920;2023-04-01T04:49:22;3.80;;;2.25;;
19919;SDS011;10122;50.074;19.920;2023-04-01T04:51:48;4.78;;;2.17;;
19919;SDS011;10122;50.074;19.920;2023-04-01T04:54:14;4.57;;;2.17;;
19919;SDS011;10122;50.074;19.920;2023-04-01T04:56:40;5.82;;;2.40;;
19919;SDS011;10122;50.074;19.920;2023-04-01T04:59:06;5.18;;;2.28;;
19919;SDS011;10122;50.074;19.920;2023-04-01T05:01:32;5.22;;;2.38;;
19919;SDS011;10122;50.074;19.920;2023-04-01T05:03:58;6.55;;;2.45;;
19919;SDS011;10122;50.074;19.920;2023-04-01T05:06:24;5.22;;;2.47;;
19919;SDS011;10122;50.074;19.920;2023-04-01T05:08:50;5.07;;;2.47;;
19919;SDS011;10122;50.074;19.920;2023-04-01T05:11:17;7.03;;;2.15;;
19919;SDS011;10122;50.074;19.920;2023-04-01T05:13:44;4.70;;;2.42;;
19919;SDS011;10122;50.074;19.920;2023-04-01T05:16:11;4.63;;;1.92;;
19919;SDS011;10122;50.074;19.920;2023-04-01T05:18:39;3.80;;;2.00;;
19919;SDS011;10122;50.074;19.920;2023-04-01T05:21:06;6.60;;;2.47;;
19919;SDS011;10122;50.074;19.920;2023-04-01T05:23:33;3.97;;;1.95;;
19919;SDS011;10122;50.074;19.920;2023-04-01T05:26:02;3.95;;;2.00;;
19919;SDS011;10122;50.074;19.920;2023-04-01T05:28:35;3.78;;;1.75;;
19919;SDS011;10122;50.074;19.920;2023-04-01T05:31:01;3.33;;;1.73;;
19919;SDS011;10122;50.074;19.920;2023-04-01T05:33:28;4.65;;;2.00;;
19919;SDS011;10122;50.074;19.920;2023-04-01T05:35:55;3.42;;;1.88;;
19919;SDS011;10122;50.074;19.920;2023-04-01T05:38:21;3.35;;;2.03;;
19919;SDS011;10122;50.074;19.920;2023-04-01T05:40:47;3.80;;;1.70;;
19919;SDS011;10122;50.074;19.920;2023-04-01T05:43:13;4.05;;;1.77;;
19919;SDS011;10122;50.074;19.920;2023-04-01T05:45:38;4.90;;;1.90;;
19919;SDS011;10122;50.074;19.920;2023-04-01T05:48:04;6.07;;;1.65;;
19919;SDS011;10122;50.074;19.920;2023-04-01T05:50:30;3.58;;;1.65;;
19919;SDS011;10122;50.074;19.920;2023-04-01T05:52:56;4.38;;;2.08;;
19919;SDS011;10122;50.074;19.920;2023-04-01T05:55:22;3.65;;;1.80;;
19919;SDS011;10122;50.074;19.920;2023-04-01T05:57:47;3.88;;;1.92;;
19919;SDS011;10122;50.074;19.920;2023-04-01T06:00:15;3.28;;;1.60;;
19919;SDS011;10122;50.074;19.920;2023-04-01T06:02:41;4.60;;;1.80;;
19919;SDS011;10122;50.074;19.920;2023-04-01T06:05:17;4.78;;;1.70;;
19919;SDS011;10122;50.074;19.920;2023-04-01T06:07:42;2.60;;;1.63;;
19919;SDS011;10122;50.074;19.920;2023-04-01T06:10:16;4.18;;;1.60;;
19919;SDS011;10122;50.074;19.920;2023-04-01T06:20:44;4.38;;;2.00;;
19919;SDS011;10122;50.074;19.920;2023-04-01T06:29:27;3.92;;;1.88;;
19919;SDS011;10122;50.074;19.920;2023-04-01T06:32:00;4.20;;;1.80;;
19919;SDS011;10122;50.074;19.920;2023-04-01T06:37:47;3.38;;;2.03;;
19919;SDS011;10122;50.074;19.920;2023-04-01T06:54:37;3.70;;;2.00;;
19919;SDS011;10122;50.074;19.920;2023-04-01T06:57:12;4.18;;;1.90;;
19919;SDS011;10122;50.074;19.920;2023-04-01T06:59:48;5.05;;;1.98;;
19919;SDS011;10122;50.074;19.920;2023-04-01T07:05:34;4.38;;;2.15;;
19919;SDS011;10122;50.074;19.920;2023-04-01T07:08:01;4.97;;;2.00;;
19919;SDS011;10122;50.074;19.920;2023-04-01T07:10:44;4.38;;;2.10;;
19919;SDS011;10122;50.074;19.920;2023-04-01T07:13:27;4.13;;;2.13;;
19919;SDS011;10122;50.074;19.920;2023-04-01T07:21:35;4.90;;;2.10;;
19919;SDS011;10122;50.074;19.920;2023-04-01T07:24:10;2.78;;;1.90;;
19919;SDS011;10122;50.074;19.920;2023-04-01T07:26:42;4.78;;;2.17;;
19919;SDS011;10122;50.074;19.920;2023-04-01T07:29:12;4.18;;;1.90;;
19919;SDS011;10122;50.074;19.920;2023-04-01T07:31:57;12.23;;;2.33;;
19919;SDS011;10122;50.074;19.920;2023-04-01T07:51:31;4.32;;;2.20;;
19919;SDS011;10122;50.074;19.920;2023-04-01T07:59:42;4.32;;;1.90;;
19919;SDS011;10122;50.074;19.920;2023-04-01T08:02:18;3.70;;;1.80;;
19919;SDS011;10122;50.074;19.920;2023-04-01T08:07:28;4.75;;;1.98;;
19919;SDS011;10122;50.074;19.920;2023-04-01T08:10:29;3.78;;;2.10;;
19919;SDS011;10122;50.074;19.920;2023-04-01T08:15:54;4.20;;;1.80;;
19919;SDS011;10122;50.074;19.920;2023-04-01T08:18:36;10.40;;;2.20;;
19919;SDS011;10122;50.074;19.920;2023-04-01T08:21:28;2.90;;;1.73;;
19919;SDS011;10122;50.074;19.920;2023-04-01T08:27:03;3.67;;;1.75;;
19919;SDS011;10122;50.074;19.920;2023-04-01T08:29:41;3.55;;;1.70;;
19919;SDS011;10122;50.074;19.920;2023-04-01T08:32:15;4.28;;;1.63;;
19919;SDS011;10122;50.074;19.920;2023-04-01T08:34:47;3.25;;;1.77;;
19919;SDS011;10122;50.074;19.920;2023-04-01T08:37:30;2.28;;;1.63;;
19919;SDS011;10122;50.074;19.920;2023-04-01T08:40:01;3.35;;;1.70;;
19919;SDS011;10122;50.074;19.920;2023-04-01T08:42:55;2.95;;;1.77;;
19919;SDS011;10122;50.074;19.920;2023-04-01T08:56:54;4.20;;;1.80;;
19919;SDS011;10122;50.074;19.920;2023-04-01T09:02:49;3.45;;;1.73;;
19919;SDS011;10122;50.074;19.920;2023-04-01T09:07:32;4.30;;;1.67;;
19919;SDS011;10122;50.074;19.920;2023-04-01T09:21:24;2.70;;;1.60;;
19919;SDS011;10122;50.074;19.920;2023-04-01T09:37:53;19.90;;;2.50;;
19919;SDS011;10122;50.074;19.920;2023-04-01T09:48:55;16.27;;;2.20;;
19919;SDS011;10122;50.074;19.920;2023-04-01T09:54:47;3.78;;;2.10;;
19919;SDS011;10122;50.074;19.920;2023-04-01T09:57:32;2.97;;;1.90;;
19919;SDS011;10122;50.074;19.920;2023-04-01T10:37:16;4.05;;;2.22;;
19919;SDS011;10122;50.074;19.920;2023-04-01T11:08:12;3.45;;;2.20;;
19919;SDS011;10122;50.074;19.920;2023-04-01T11:27:50;2.78;;;1.65;;
19919;SDS011;10122;50.074;19.920;2023-04-01T11:33:02;3.28;;;1.80;;
19919;SDS011;10122;50.074;19.920;2023-04-01T11:55:13;6.35;;;2.05;;
19919;SDS011;10122;50.074;19.920;2023-04-01T11:57:59;4.70;;;2.35;;
19919;SDS011;10122;50.074;19.920;2023-04-01T12:11:25;3.28;;;2.17;;
19919;SDS011;10122;50.074;19.920;2023-04-01T12:14:27;3.10;;;2.20;;
19919;SDS011;10122;50.074;19.920;2023-04-01T12:22:30;2.60;;;1.40;;
19919;SDS011;10122;50.074;19.920;2023-04-01T12:36:40;2.17;;;1.50;;
19919;SDS011;10122;50.074;19.920;2023-04-01T12:55:59;3.55;;;1.50;;
19919;SDS011;10122;50.074;19.920;2023-04-01T13:04:14;2.85;;;1.80;;
19919;SDS011;10122;50.074;19.920;2023-04-01T13:16:05;1.85;;;1.50;;
19919;SDS011;10122;50.074;19.920;2023-04-01T13:21:13;3.22;;;2.05;;
19919;SDS011;10122;50.074;19.920;2023-04-01T13:26:44;2.38;;;1.70;;
19919;SDS011;10122;50.074;19.920;2023-04-01T13:29:25;3.15;;;2.10;;
19919;SDS011;10122;50.074;19.920;2023-04-01T13:45:28;3.33;;;1.70;;
19919;SDS011;10122;50.074;19.920;2023-04-01T13:53:40;2.53;;;1.50;;
19919;SDS011;10122;50.074;19.920;2023-04-01T14:05:25;3.05;;;1.40;;
19919;SDS011;10122;50.074;19.920;2023-04-01T14:08:04;2.03;;;1.50;;
19919;SDS011;10122;50.074;19.920;2023-04-01T14:11:15;1.85;;;1.55;;
19919;SDS011;10122;50.074;19.920;2023-04-01T14:19:10;5.32;;;1.60;;
19919;SDS011;10122;50.074;19.920;2023-04-01T14:22:05;2.40;;;1.70;;
19919;SDS011;10122;50.074;19.920;2023-04-01T14:24:56;2.47;;;1.67;;
19919;SDS011;10122;50.074;19.920;2023-04-01T14:27:35;2.45;;;1.40;;
19919;SDS011;10122;50.074;19.920;2023-04-01T14:33:47;3.58;;;2.10;;
19919;SDS011;10122;50.074;19.920;2023-04-01T14:36:00;4.45;;;2.20;;
19919;SDS011;10122;50.074;19.920;2023-04-01T14:38:51;4.05;;;2.40;;
19919;SDS011;10122;50.074;19.920;2023-04-01T14:50:18;5.68;;;2.80;;
19919;SDS011;10122;50.074;19.920;2023-04-01T14:58:12;3.65;;;2.60;;
19919;SDS011;10122;50.074;19.920;2023-04-01T15:03:11;6.90;;;3.00;;
19919;SDS011;10122;50.074;19.920;2023-04-01T15:23:29;5.25;;;3.47;;
19919;SDS011;10122;50.074;19.920;2023-04-01T15:26:27;6.65;;;3.20;;
19919;SDS011;10122;50.074;19.920;2023-04-01T15:29:22;5.30;;;2.83;;
19919;SDS011;10122;50.074;19.920;2023-04-01T15:34:36;5.50;;;2.88;;
19919;SDS011;10122;50.074;19.920;2023-04-01T15:37:14;6.25;;;2.60;;
19919;SDS011;10122;50.074;19.920;2023-04-01T15:39:53;4.53;;;2.80;;
19919;SDS011;10122;50.074;19.920;2023-04-01T15:42:48;4.13;;;2.70;;
19919;SDS011;10122;50.074;19.920;2023-04-01T15:59:40;4.13;;;2.50;;
19919;SDS011;10122;50.074;19.920;2023-04-01T16:15:58;3.80;;;2.75;;
19919;SDS011;10122;50.074;19.920;2023-04-01T16:21:25;7.38;;;3.60;;
19919;SDS011;10122;50.074;19.920;2023-04-01T16:24:04;4.47;;;3.30;;
19919;SDS011;10122;50.074;19.920;2023-04-01T16:27:03;4.95;;;3.45;;
19919;SDS011;10122;50.074;19.920;2023-04-01T16:29:38;6.55;;;4.15;;
19919;SDS011;10122;50.074;19.920;2023-04-01T16:38:05;7.50;;;4.35;;
19919;SDS011;10122;50.074;19.920;2023-04-01T16:41:00;5.68;;;3.92;;
19919;SDS011;10122;50.074;19.920;2023-04-01T16:43:47;8.07;;;4.70;;
19919;SDS011;10122;50.074;19.920;2023-04-01T16:46:32;6.75;;;4.88;;
19919;SDS011;10122;50.074;19.920;2023-04-01T16:49:44;7.70;;;5.00;;
19919;SDS011;10122;50.074;19.920;2023-04-01T16:53:08;8.27;;;5.30;;
19919;SDS011;10122;50.074;19.920;2023-04-01T16:55:34;7.75;;;5.65;;
19919;SDS011;10122;50.074;19.920;2023-04-01T16:58:10;9.70;;;5.55;;
19919;SDS011;10122;50.074;19.920;2023-04-01T17:00:48;8.77;;;5.28;;
19919;SDS011;10122;50.074;19.920;2023-04-01T17:03:18;7.15;;;5.40;;
19919;SDS011;10122;50.074;19.920;2023-04-01T17:11:27;7.80;;;5.30;;
19919;SDS011;10122;50.074;19.920;2023-04-01T17:25:38;8.25;;;4.80;;
19919;SDS011;10122;50.074;19.920;2023-04-01T17:30:59;8.68;;;5.97;;
19919;SDS011;10122;50.074;19.920;2023-04-01T17:37:01;8.85;;;5.43;;
19919;SDS011;10122;50.074;19.920;2023-04-01T17:42:56;10.38;;;6.95;;
19919;SDS011;10122;50.074;19.920;2023-04-01T17:51:17;11.38;;;7.13;;
19919;SDS011;10122;50.074;19.920;2023-04-01T17:59:13;12.63;;;8.00;;
19919;SDS011;10122;50.074;19.920;2023-04-01T18:01:56;10.70;;;7.47;;
19919;SDS011;10122;50.074;19.920;2023-04-01T18:10:17;9.68;;;6.40;;
19919;SDS011;10122;50.074;19.920;2023-04-01T18:18:09;9.77;;;5.90;;
19919;SDS011;10122;50.074;19.920;2023-04-01T18:20:53;9.20;;;6.50;;
19919;SDS011;10122;50.074;19.920;2023-04-01T18:23:32;9.77;;;6.55;;
19919;SDS011;10122;50.074;19.920;2023-04-01T18:26:08;10.18;;;7.00;;
19919;SDS011;10122;50.074;19.920;2023-04-01T18:29:48;11.20;;;6.65;;
19919;SDS011;10122;50.074;19.920;2023-04-01T18:37:19;12.30;;;7.07;;
19919;SDS011;10122;50.074;19.920;2023-04-01T18:40:13;12.70;;;7.38;;
19919;SDS011;10122;50.074;19.920;2023-04-01T18:45:34;11.73;;;7.50;;
19919;SDS011;10122;50.074;19.920;2023-04-01T18:54:47;12.88;;;7.65;;
19919;SDS011;10122;50.074;19.920;2023-04-01T18:57:02;13.27;;;7.90;;
19919;SDS011;10122;50.074;19.920;2023-04-01T18:59:47;12.98;;;7.93;;
19919;SDS011;10122;50.074;19.920;2023-04-01T19:05:32;12.85;;;8.75;;
19919;SDS011;10122;50.074;19.920;2023-04-01T19:10:58;16.73;;;10.43;;
19919;SDS011;10122;50.074;19.920;2023-04-01T19:16:37;13.65;;;9.35;;
19919;SDS011;10122;50.074;19.920;2023-04-01T19:27:48;18.08;;;9.98;;
19919;SDS011;10122;50.074;19.920;2023-04-01T19:38:14;19.55;;;11.65;;
19919;SDS011;10122;50.074;19.920;2023-04-01T19:40:54;18.08;;;11.57;;
19919;SDS011;10122;50.074;19.920;2023-04-01T19:51:27;19.92;;;12.50;;
19919;SDS011;10122;50.074;19.920;2023-04-01T19:54:20;22.13;;;13.73;;
19919;SDS011;10122;50.074;19.920;2023-04-01T19:59:59;23.55;;;13.95;;
19919;SDS011;10122;50.074;19.920;2023-04-01T20:02:58;21.23;;;12.80;;
19919;SDS011;10122;50.074;19.920;2023-04-01T20:08:39;20.38;;;12.95;;
19919;SDS011;10122;50.074;19.920;2023-04-01T20:11:46;20.00;;;12.65;;
19919;SDS011;10122;50.074;19.920;2023-04-01T20:36:10;22.98;;;15.02;;
19919;SDS011;10122;50.074;19.920;2023-04-01T20:42:00;24.38;;;15.27;;
19919;SDS011;10122;50.074;19.920;2023-04-01T20:54:40;27.47;;;17.57;;
19919;SDS011;10122;50.074;19.920;2023-04-01T20:57:27;22.67;;;13.90;;
19919;SDS011;10122;50.074;19.920;2023-04-01T21:14:41;22.15;;;14.02;;
19919;SDS011;10122;50.074;19.920;2023-04-01T21:20:30;20.83;;;13.18;;
19919;SDS011;10122;50.074;19.920;2023-04-01T21:31:45;20.13;;;12.77;;
19919;SDS011;10122;50.074;19.920;2023-04-01T21:37:53;21.83;;;14.38;;
19919;SDS011;10122;50.074;19.920;2023-04-01T21:43:02;23.92;;;14.30;;
19919;SDS011;10122;50.074;19.920;2023-04-01T22:00:59;20.90;;;12.98;;
19919;SDS011;10122;50.074;19.920;2023-04-01T22:06:22;21.13;;;12.45;;
19919;SDS011;10122;50.074;19.920;2023-04-01T22:22:18;19.75;;;12.82;;
19919;SDS011;10122;50.074;19.920;2023-04-01T22:38:52;20.58;;;13.43;;
19919;SDS011;10122;50.074;19.920;2023-04-01T22:41:40;20.23;;;13.52;;
19919;SDS011;10122;50.074;19.920;2023-04-01T22:44:41;22.23;;;14.45;;
19919;SDS011;10122;50.074;19.920;2023-04-01T22:50:25;23.85;;;14.77;;
19919;SDS011;10122;50.074;19.920;2023-04-01T22:55:57;19.95;;;13.25;;
19919;SDS011;10122;50.074;19.920;2023-04-01T23:01:40;18.05;;;11.38;;
19919;SDS011;10122;50.074;19.920;2023-04-01T23:04:15;21.17;;;13.55;;
19919;SDS011;10122;50.074;19.920;2023-04-01T23:06:48;23.55;;;14.18;;
19919;SDS011;10122;50.074;19.920;2023-04-01T23:09:23;18.88;;;11.65;;
19919;SDS011;10122;50.074;19.920;2023-04-01T23:31:29;24.35;;;14.52;;
19919;SDS011;10122;50.074;19.920;2023-04-01T23:34:17;23.83;;;14.95;;
19919;SDS011;10122;50.074;19.920;2023-04-01T23:36:50;22.27;;;14.77;;
19919;SDS011;10122;50.074;19.920;2023-04-01T23:39:42;24.63;;;15.25;;
19919;SDS011;10122;50.074;19.920;2023-04-01T23:44:56;22.33;;;14.50;;
19919;SDS011;10122;50.074;19.920;2023-04-01T23:47:26;24.38;;;15.10;;
19919;SDS011;10122;50.074;19.920;2023-04-01T23:49:54;23.58;;;15.43;;
19919;SDS011;10122;50.074;19.920;2023-04-01T23:52:24;23.80;;;15.48;;
19919;SDS011;10122;50.074;19.920;2023-04-01T23:57:27;24.90;;;15.20;;
